createdAt,value
2023-07-27T00:00:31.117Z,2.40
2023-07-27T00:02:39.953Z,1.93
2023-07-27T00:04:45.809Z,2.25
2023-07-27T00:06:51.405Z,2.35
2023-07-27T00:08:59.142Z,2.63
2023-07-27T00:11:04.506Z,2.22
2023-07-27T00:13:12.207Z,2.60
2023-07-27T00:15:21.941Z,2.10
2023-07-27T00:17:28.409Z,1.98
2023-07-27T00:19:41.090Z,2.57
2023-07-27T00:21:46.779Z,2.40
2023-07-27T00:24:01.164Z,2.67
2023-07-27T00:26:03.999Z,2.60
2023-07-27T00:28:11.520Z,2.25
2023-07-27T00:30:21.820Z,2.72
2023-07-27T00:32:34.217Z,2.13
2023-07-27T00:34:44.179Z,2.22
2023-07-27T00:36:51.575Z,2.85
2023-07-27T00:38:58.394Z,2.30
2023-07-27T00:41:07.279Z,2.63
2023-07-27T00:43:15.048Z,2.63
2023-07-27T00:45:27.784Z,2.75
2023-07-27T00:47:35.912Z,2.47
2023-07-27T00:49:42.089Z,2.28
2023-07-27T00:51:52.034Z,2.88
2023-07-27T00:54:00.083Z,2.97
2023-07-27T00:56:09.975Z,2.65
2023-07-27T00:58:16.566Z,3.03
2023-07-27T01:00:27.263Z,3.03
2023-07-27T01:02:33.221Z,3.03
2023-07-27T01:04:39.735Z,3.20
2023-07-27T01:06:48.505Z,3.10
2023-07-27T01:08:58.249Z,3.20
2023-07-27T01:11:15.215Z,3.55
2023-07-27T01:13:33.063Z,3.03
2023-07-27T01:15:48.307Z,3.33
2023-07-27T01:18:03.180Z,3.20
2023-07-27T01:20:20.882Z,3.35
2023-07-27T01:22:48.651Z,3.37
2023-07-27T01:25:17.150Z,2.92
2023-07-27T01:27:52.907Z,3.03
2023-07-27T01:30:31.984Z,3.00
2023-07-27T01:32:43.328Z,2.97
2023-07-27T01:34:58.405Z,3.00
2023-07-27T01:37:12.053Z,2.92
2023-07-27T01:39:19.838Z,2.92
2023-07-27T01:41:27.525Z,3.50
2023-07-27T01:45:38.376Z,3.10
2023-07-27T01:47:56.020Z,3.08
2023-07-27T01:50:03.916Z,3.13
2023-07-27T01:52:09.239Z,3.20
2023-07-27T01:54:15.124Z,3.35
2023-07-27T01:56:21.021Z,3.30
2023-07-27T01:58:27.712Z,3.15
2023-07-27T02:00:34.113Z,3.45
2023-07-27T02:02:40.031Z,2.85
2023-07-27T02:04:48.401Z,3.38
2023-07-27T02:06:54.400Z,2.80
2023-07-27T02:08:59.746Z,2.83
2023-07-27T02:11:11.666Z,2.70
2023-07-27T02:13:28.420Z,3.03
2023-07-27T02:15:40.000Z,3.17
2023-07-27T02:17:52.189Z,3.08
2023-07-27T02:20:04.208Z,2.75
2023-07-27T02:22:10.003Z,2.92
2023-07-27T02:24:17.059Z,2.92
2023-07-27T02:26:23.252Z,3.03
2023-07-27T02:28:33.209Z,3.33
2023-07-27T02:30:39.194Z,2.72
2023-07-27T02:32:44.741Z,2.63
2023-07-27T02:34:50.272Z,3.15
2023-07-27T02:36:58.878Z,2.90
2023-07-27T02:39:05.010Z,2.80
2023-07-27T02:41:13.724Z,3.20
2023-07-27T02:43:20.617Z,2.92
2023-07-27T02:45:26.597Z,3.55
2023-07-27T02:47:39.379Z,2.95
2023-07-27T02:49:45.335Z,3.10
2023-07-27T02:51:50.986Z,3.17
2023-07-27T02:53:59.124Z,3.40
2023-07-27T02:56:09.657Z,3.00
2023-07-27T02:58:24.272Z,3.10
2023-07-27T03:00:29.650Z,3.10
2023-07-27T03:02:35.748Z,3.30
2023-07-27T03:04:43.966Z,2.95
2023-07-27T03:06:56.281Z,3.00
2023-07-27T03:09:07.712Z,3.28
2023-07-27T03:11:13.237Z,3.08
2023-07-27T03:13:19.462Z,3.13
2023-07-27T03:15:24.875Z,2.88
2023-07-27T03:17:32.954Z,3.25
2023-07-27T03:21:43.898Z,3.22
2023-07-27T03:23:50.905Z,2.72
2023-07-27T03:25:59.013Z,3.30
2023-07-27T03:28:05.072Z,2.90
2023-07-27T03:30:12.282Z,2.88
2023-07-27T03:32:18.376Z,3.20
2023-07-27T03:34:23.764Z,2.85
2023-07-27T03:36:29.287Z,3.00
2023-07-27T03:38:34.214Z,2.80
2023-07-27T03:40:41.088Z,2.83
2023-07-27T03:42:49.502Z,2.83
2023-07-27T03:44:55.270Z,3.10
2023-07-27T03:47:01.118Z,2.67
2023-07-27T03:49:07.382Z,3.00
2023-07-27T03:51:12.816Z,3.03
2023-07-27T03:53:18.948Z,3.33
2023-07-27T03:55:24.640Z,3.03
2023-07-27T03:57:28.714Z,3.03
2023-07-27T03:59:37.040Z,3.25
2023-07-27T04:01:42.606Z,3.40
2023-07-27T04:03:48.643Z,3.67
2023-07-27T04:05:54.796Z,3.10
2023-07-27T04:08:00.452Z,2.80
2023-07-27T04:10:06.356Z,3.00
2023-07-27T04:12:09.642Z,3.08
2023-07-27T04:14:15.541Z,2.65
2023-07-27T04:16:23.539Z,2.90
2023-07-27T04:18:30.319Z,2.90
2023-07-27T04:20:36.400Z,2.90
2023-07-27T04:22:41.803Z,3.30
2023-07-27T04:24:47.311Z,2.72
2023-07-27T04:26:53.010Z,2.60
2023-07-27T04:29:01.370Z,4.00
2023-07-27T04:31:06.971Z,2.95
2023-07-27T04:33:15.452Z,3.80
2023-07-27T04:35:21.080Z,3.33
2023-07-27T04:37:24.840Z,3.20
2023-07-27T04:39:30.625Z,3.28
2023-07-27T04:41:36.009Z,3.25
2023-07-27T04:43:41.659Z,3.10
2023-07-27T04:45:47.303Z,3.00
2023-07-27T04:47:51.726Z,3.08
2023-07-27T04:50:00.424Z,3.22
2023-07-27T04:52:05.872Z,2.72
2023-07-27T04:54:11.959Z,3.42
2023-07-27T04:56:17.578Z,3.25
2023-07-27T04:58:23.318Z,3.55
2023-07-27T05:00:29.797Z,2.80
2023-07-27T05:02:35.206Z,3.17
2023-07-27T05:04:41.204Z,2.85
2023-07-27T05:06:49.130Z,3.10
2023-07-27T05:08:55.145Z,2.67
2023-07-27T05:11:02.890Z,3.10
2023-07-27T05:13:08.228Z,3.47
2023-07-27T05:15:14.028Z,3.22
2023-07-27T05:17:20.621Z,3.05
2023-07-27T05:19:26.452Z,3.35
2023-07-27T05:21:32.069Z,3.30
2023-07-27T05:23:40.027Z,3.00
2023-07-27T05:25:45.426Z,3.53
2023-07-27T05:27:50.838Z,3.40
2023-07-27T05:29:56.688Z,3.53
2023-07-27T05:32:02.094Z,3.13
2023-07-27T05:34:09.143Z,3.20
2023-07-27T05:36:15.052Z,3.75
2023-07-27T05:38:22.615Z,3.78
2023-07-27T05:40:30.937Z,3.40
2023-07-27T05:42:36.417Z,3.45
2023-07-27T05:44:42.049Z,3.58
2023-07-27T05:46:47.814Z,3.90
2023-07-27T05:48:53.169Z,3.70
2023-07-27T05:51:01.360Z,3.50
2023-07-27T05:53:07.321Z,3.67
2023-07-27T05:55:12.841Z,4.10
2023-07-27T05:57:22.551Z,4.18
2023-07-27T05:59:28.284Z,3.83
2023-07-27T06:01:33.989Z,3.78
2023-07-27T06:03:36.850Z,4.22
2023-07-27T06:05:47.552Z,4.45
2023-07-27T06:07:50.848Z,3.80
2023-07-27T06:10:02.452Z,3.72
2023-07-27T06:12:13.076Z,3.58
2023-07-27T06:14:21.046Z,3.85
2023-07-27T06:16:27.005Z,3.60
2023-07-27T06:18:36.092Z,3.58
2023-07-27T06:20:41.437Z,4.35
2023-07-27T06:22:47.552Z,3.28
2023-07-27T06:24:53.032Z,3.50
2023-07-27T06:26:58.749Z,3.70
2023-07-27T06:29:05.330Z,3.45
2023-07-27T06:31:13.500Z,3.40
2023-07-27T06:33:19.259Z,3.80
2023-07-27T06:35:25.811Z,4.22
2023-07-27T06:37:33.627Z,3.80
2023-07-27T06:39:39.706Z,3.95
2023-07-27T06:41:45.285Z,4.00
2023-07-27T06:43:51.533Z,3.78
2023-07-27T06:45:58.080Z,4.40
2023-07-27T06:48:06.436Z,3.85
2023-07-27T06:50:15.723Z,4.05
2023-07-27T06:52:21.368Z,3.38
2023-07-27T06:54:27.507Z,4.03
2023-07-27T06:56:33.244Z,4.07
2023-07-27T06:58:42.674Z,4.10
2023-07-27T07:00:48.637Z,4.07
2023-07-27T07:02:54.428Z,4.30
2023-07-27T07:05:02.947Z,4.00
2023-07-27T07:07:08.843Z,3.75
2023-07-27T07:09:15.095Z,3.88
2023-07-27T07:11:26.304Z,4.38
2023-07-27T07:13:32.244Z,4.55
2023-07-27T07:15:37.729Z,3.75
2023-07-27T07:17:41.889Z,3.72
2023-07-27T07:19:47.987Z,3.58
2023-07-27T07:21:56.370Z,3.08
2023-07-27T07:24:02.968Z,3.08
2023-07-27T07:26:08.509Z,3.55
2023-07-27T07:28:15.459Z,3.10
2023-07-27T07:30:21.789Z,3.13
2023-07-27T07:32:27.840Z,3.00
2023-07-27T07:34:35.130Z,3.35
2023-07-27T07:36:40.472Z,3.60
2023-07-27T07:39:02.880Z,3.20
2023-07-27T07:41:08.776Z,3.30
2023-07-27T07:43:14.400Z,3.45
2023-07-27T07:45:21.533Z,3.30
2023-07-27T07:47:26.927Z,3.25
2023-07-27T07:49:32.646Z,3.20
2023-07-27T07:51:38.674Z,3.13
2023-07-27T07:53:45.370Z,3.30
2023-07-27T07:55:53.658Z,3.20
2023-07-27T07:58:00.320Z,3.33
2023-07-27T08:00:06.996Z,3.08
2023-07-27T08:02:37.098Z,3.20
2023-07-27T08:04:43.051Z,2.80
2023-07-27T08:06:49.027Z,3.28
2023-07-27T08:08:54.445Z,3.33
2023-07-27T08:11:11.728Z,3.47
2023-07-27T08:13:18.881Z,2.83
2023-07-27T08:15:24.598Z,2.83
2023-07-27T08:17:35.521Z,3.08
2023-07-27T08:19:40.973Z,2.90
2023-07-27T08:21:47.067Z,3.17
2023-07-27T08:23:53.046Z,3.30
2023-07-27T08:25:56.487Z,2.60
2023-07-27T08:28:06.202Z,2.83
2023-07-27T08:30:13.161Z,2.78
2023-07-27T08:32:21.380Z,2.55
2023-07-27T08:34:27.113Z,2.65
2023-07-27T08:36:34.822Z,2.70
2023-07-27T08:38:46.218Z,2.75
2023-07-27T08:40:58.828Z,2.35
2023-07-27T08:43:09.437Z,2.50
2023-07-27T08:45:16.870Z,2.42
2023-07-27T08:47:23.234Z,2.33
2023-07-27T08:49:29.478Z,2.60
2023-07-27T08:51:37.312Z,3.35
2023-07-27T08:53:42.828Z,2.50
2023-07-27T08:55:53.045Z,2.30
2023-07-27T08:57:58.163Z,2.30
2023-07-27T09:00:06.599Z,2.40
2023-07-27T09:02:12.709Z,2.20
2023-07-27T09:04:18.075Z,2.20
2023-07-27T09:06:41.661Z,2.40
2023-07-27T09:08:53.280Z,2.08
2023-07-27T09:11:12.597Z,1.95
2023-07-27T09:13:18.004Z,2.08
2023-07-27T09:15:27.461Z,2.45
2023-07-27T09:17:37.007Z,2.75
2023-07-27T09:19:44.462Z,2.50
2023-07-27T09:21:54.194Z,2.30
2023-07-27T09:23:59.244Z,2.47
2023-07-27T09:26:04.801Z,2.88
2023-07-27T09:28:10.495Z,2.97
2023-07-27T09:30:23.768Z,2.40
2023-07-27T09:32:40.432Z,2.88
2023-07-27T09:34:47.139Z,3.17
2023-07-27T09:36:52.866Z,3.25
2023-07-27T09:38:59.077Z,3.08
2023-07-27T09:41:12.819Z,2.95
2023-07-27T09:43:18.842Z,2.67
2023-07-27T09:45:25.902Z,2.92
2023-07-27T09:47:39.526Z,2.95
2023-07-27T09:49:45.958Z,2.65
2023-07-27T09:51:52.151Z,2.53
2023-07-27T09:53:56.847Z,2.92
2023-07-27T09:56:03.410Z,2.58
2023-07-27T09:58:12.698Z,2.60
2023-07-27T10:00:23.096Z,2.55
2023-07-27T10:02:32.462Z,2.60
2023-07-27T10:04:41.048Z,2.83
2023-07-27T10:06:48.601Z,3.15
2023-07-27T10:08:59.152Z,2.50
2023-07-27T10:11:05.581Z,3.00
2023-07-27T10:13:15.756Z,3.10
2023-07-27T10:15:25.376Z,2.60
2023-07-27T10:17:48.916Z,2.75
2023-07-27T10:19:57.994Z,2.75
2023-07-27T10:22:14.325Z,2.53
2023-07-27T10:24:26.896Z,2.22
2023-07-27T10:26:53.506Z,2.50
2023-07-27T10:28:59.415Z,2.50
2023-07-27T10:31:28.180Z,2.65
2023-07-27T10:33:32.083Z,1.90
2023-07-27T10:36:06.174Z,2.22
2023-07-27T10:38:15.910Z,2.45
2023-07-27T10:40:28.259Z,2.55
2023-07-27T10:42:38.506Z,1.98
2023-07-27T10:44:48.393Z,1.80
2023-07-27T10:47:01.041Z,1.90
2023-07-27T10:49:28.404Z,2.10
2023-07-27T10:51:37.471Z,1.65
2023-07-27T10:53:43.609Z,2.20
2023-07-27T10:55:50.422Z,1.60
2023-07-27T10:57:59.886Z,1.58
2023-07-27T11:00:07.342Z,1.85
2023-07-27T11:02:17.383Z,1.70
2023-07-27T11:04:23.249Z,1.45
2023-07-27T11:06:50.824Z,1.85
2023-07-27T11:09:03.284Z,1.88
2023-07-27T11:11:24.828Z,1.90
2023-07-27T11:13:35.364Z,2.15
2023-07-27T11:15:41.275Z,2.08
2023-07-27T11:17:47.142Z,2.10
2023-07-27T11:19:53.826Z,1.80
2023-07-27T11:21:59.754Z,2.28
2023-07-27T11:24:06.506Z,1.70
2023-07-27T11:26:12.348Z,2.17
2023-07-27T11:28:24.031Z,2.00
2023-07-27T11:30:29.654Z,2.30
2023-07-27T11:32:35.758Z,2.50
2023-07-27T11:34:41.387Z,2.70
2023-07-27T11:36:47.337Z,2.22
2023-07-27T11:38:53.079Z,2.30
2023-07-27T11:41:29.141Z,2.45
2023-07-27T11:43:29.270Z,2.58
2023-07-27T11:45:36.555Z,2.30
2023-07-27T11:47:47.858Z,2.47
2023-07-27T11:49:54.642Z,2.70
2023-07-27T11:52:02.038Z,2.50
2023-07-27T11:54:05.508Z,2.53
2023-07-27T11:56:15.738Z,2.60
2023-07-27T11:58:31.037Z,2.95
2023-07-27T12:00:35.119Z,2.50
2023-07-27T12:02:42.876Z,2.30
2023-07-27T12:04:48.957Z,2.67
2023-07-27T12:06:56.078Z,2.40
2023-07-27T12:09:01.540Z,2.10
2023-07-27T12:13:58.463Z,2.33
2023-07-27T12:18:15.760Z,1.98
2023-07-27T12:24:48.023Z,2.03
2023-07-27T12:32:10.694Z,2.40
2023-07-27T12:33:41.151Z,2.25
2023-07-27T12:35:46.631Z,2.30
2023-07-27T12:37:52.630Z,2.20
2023-07-27T12:40:09.810Z,2.38
2023-07-27T12:44:27.695Z,2.70
2023-07-27T12:46:33.372Z,2.30
2023-07-27T12:48:52.971Z,2.65
2023-07-27T12:50:58.647Z,2.70
2023-07-27T12:53:04.103Z,2.60
2023-07-27T12:55:10.732Z,2.30
2023-07-27T12:57:24.760Z,2.15
2023-07-27T12:59:32.898Z,1.95
2023-07-27T13:01:38.566Z,2.58
2023-07-27T13:03:44.176Z,2.50
2023-07-27T13:05:49.830Z,2.10
2023-07-27T13:07:55.435Z,2.20
2023-07-27T13:10:00.213Z,2.70
2023-07-27T13:12:06.001Z,2.50
2023-07-27T13:14:11.655Z,2.30
2023-07-27T13:16:19.808Z,2.67
2023-07-27T13:18:32.107Z,2.53
2023-07-27T13:20:40.720Z,2.40
2023-07-27T13:22:46.264Z,2.40
2023-07-27T13:24:51.660Z,2.47
2023-07-27T13:26:57.191Z,2.00
2023-07-27T13:29:02.754Z,2.30
2023-07-27T13:31:15.366Z,2.47
2023-07-27T13:33:23.703Z,2.15
2023-07-27T13:35:29.358Z,2.85
2023-07-27T13:37:40.855Z,2.40
2023-07-27T13:39:46.292Z,2.72
2023-07-27T13:41:51.781Z,3.28
2023-07-27T13:43:57.544Z,2.20
2023-07-27T13:46:07.191Z,2.78
2023-07-27T13:48:15.492Z,2.28
2023-07-27T13:50:25.766Z,2.60
2023-07-27T13:52:31.929Z,2.88
2023-07-27T13:54:37.363Z,2.70
2023-07-27T13:56:43.089Z,2.70
2023-07-27T13:58:48.577Z,2.80
2023-07-27T14:01:00.023Z,2.60
2023-07-27T14:03:05.812Z,2.58
2023-07-27T14:05:12.125Z,2.53
2023-07-27T14:07:21.037Z,2.40
2023-07-27T14:09:26.891Z,2.67
2023-07-27T14:11:36.092Z,2.88
2023-07-27T14:13:44.298Z,2.78
2023-07-27T14:15:54.600Z,3.30
2023-07-27T14:18:03.584Z,3.30
2023-07-27T14:20:10.992Z,2.90
2023-07-27T14:22:16.437Z,3.15
2023-07-27T14:24:24.683Z,2.88
2023-07-27T14:26:30.881Z,3.03
2023-07-27T14:28:41.871Z,3.60
2023-07-27T14:31:06.148Z,3.55
2023-07-27T14:33:17.833Z,3.58
2023-07-27T14:35:26.289Z,3.38
2023-07-27T14:37:34.699Z,3.45
2023-07-27T14:41:51.758Z,4.00
2023-07-27T14:43:57.764Z,3.95
2023-07-27T14:46:01.298Z,4.35
2023-07-27T14:48:07.328Z,4.20
2023-07-27T14:50:14.363Z,3.83
2023-07-27T14:52:20.590Z,4.35
2023-07-27T14:54:26.193Z,4.25
2023-07-27T14:56:42.194Z,4.45
2023-07-27T14:58:50.126Z,3.97
2023-07-27T15:00:56.131Z,4.20
2023-07-27T15:03:05.757Z,4.03
2023-07-27T15:05:13.959Z,4.05
2023-07-27T15:07:23.314Z,4.30
2023-07-27T15:09:29.043Z,4.03
2023-07-27T15:11:38.804Z,3.90
2023-07-27T15:13:45.436Z,3.30
2023-07-27T15:15:51.302Z,3.45
2023-07-27T15:17:57.069Z,3.28
2023-07-27T15:20:03.170Z,3.53
2023-07-27T15:22:14.143Z,3.70
2023-07-27T15:24:19.550Z,3.30
2023-07-27T15:26:23.451Z,2.58
2023-07-27T15:28:42.580Z,2.63
2023-07-27T15:30:48.606Z,2.47
2023-07-27T15:32:55.823Z,3.00
2023-07-27T15:35:02.973Z,3.20
2023-07-27T15:37:09.195Z,2.72
2023-07-27T15:39:14.946Z,2.20
2023-07-27T15:41:27.003Z,2.28
2023-07-27T15:43:35.055Z,2.28
2023-07-27T15:45:40.495Z,2.40
2023-07-27T15:47:54.063Z,2.67
2023-07-27T15:49:59.505Z,2.25
2023-07-27T15:52:05.167Z,2.60
2023-07-27T15:54:12.493Z,2.97
2023-07-27T15:56:18.043Z,2.70
2023-07-27T15:58:29.355Z,2.33
2023-07-27T16:00:39.579Z,2.30
2023-07-27T16:02:46.522Z,2.38
2023-07-27T16:04:51.927Z,2.10
2023-07-27T16:06:57.795Z,2.30
2023-07-27T16:09:03.187Z,2.00
2023-07-27T16:11:13.475Z,2.45
2023-07-27T16:13:26.646Z,2.35
2023-07-27T16:15:29.964Z,1.98
2023-07-27T16:17:41.064Z,2.03
2023-07-27T16:19:46.990Z,2.08
2023-07-27T16:21:52.998Z,2.30
2023-07-27T16:23:58.713Z,2.38
2023-07-27T16:26:08.164Z,2.15
2023-07-27T16:28:14.476Z,2.40
2023-07-27T16:30:25.816Z,1.75
2023-07-27T16:32:33.045Z,2.40
2023-07-27T16:34:43.547Z,2.30
2023-07-27T16:36:49.169Z,1.83
2023-07-27T16:39:00.977Z,1.65
2023-07-27T16:41:03.843Z,1.90
2023-07-27T16:43:09.577Z,2.00
2023-07-27T16:45:15.342Z,2.33
2023-07-27T16:47:28.569Z,2.47
2023-07-27T16:49:39.277Z,2.72
2023-07-27T16:51:47.412Z,2.90
2023-07-27T16:53:53.714Z,3.00
2023-07-27T16:55:59.292Z,3.17
2023-07-27T16:58:05.260Z,3.55
2023-07-27T17:00:12.225Z,3.70
2023-07-27T17:02:23.388Z,2.63
2023-07-27T17:04:29.828Z,3.53
2023-07-27T17:06:35.587Z,3.58
2023-07-27T17:08:54.130Z,3.95
2023-07-27T17:11:03.861Z,4.43
2023-07-27T17:13:09.738Z,4.40
2023-07-27T17:15:15.692Z,4.35
2023-07-27T17:17:24.146Z,4.28
2023-07-27T17:19:29.625Z,3.83
2023-07-27T17:21:35.054Z,4.93
2023-07-27T17:23:44.065Z,4.47
2023-07-27T17:25:49.531Z,4.80
2023-07-27T17:27:55.075Z,4.97
2023-07-27T17:30:06.886Z,4.70
2023-07-27T17:32:12.760Z,4.47
2023-07-27T17:34:18.852Z,4.90
2023-07-27T17:36:24.326Z,5.35
2023-07-27T17:38:34.447Z,5.20
2023-07-27T17:40:43.178Z,5.45
2023-07-27T17:42:48.730Z,5.00
2023-07-27T17:44:54.139Z,4.38
2023-07-27T17:46:59.602Z,5.07
2023-07-27T17:49:05.125Z,4.53
2023-07-27T17:51:16.259Z,4.93
2023-07-27T17:53:22.293Z,5.38
2023-07-27T17:55:27.999Z,4.97
2023-07-27T17:57:39.878Z,4.82
2023-07-27T17:59:45.355Z,4.28
2023-07-27T18:01:50.934Z,4.53
2023-07-27T18:03:58.275Z,4.35
2023-07-27T18:06:07.645Z,4.13
2023-07-27T18:08:13.093Z,4.53
2023-07-27T18:10:26.640Z,4.65
2023-07-27T18:12:32.040Z,4.50
2023-07-27T18:14:40.291Z,3.95
2023-07-27T18:16:45.758Z,4.13
2023-07-27T18:18:58.080Z,4.20
2023-07-27T18:21:05.455Z,3.47
2023-07-27T18:23:10.945Z,2.97
2023-07-27T18:25:13.935Z,3.22
2023-07-27T18:27:28.461Z,3.50
2023-07-27T18:29:33.941Z,3.20
2023-07-27T18:31:42.587Z,2.70
2023-07-27T18:33:48.166Z,3.10
2023-07-27T18:35:53.723Z,2.90
2023-07-27T18:37:59.373Z,3.10
2023-07-27T18:40:08.270Z,3.42
2023-07-27T18:42:13.831Z,2.95
2023-07-27T18:44:19.268Z,3.42
2023-07-27T18:46:25.592Z,3.03
2023-07-27T18:48:32.377Z,3.30
2023-07-27T18:50:38.086Z,3.50
2023-07-27T18:52:43.620Z,3.60
2023-07-27T18:54:49.833Z,3.30
2023-07-27T18:56:55.825Z,3.22
2023-07-27T18:59:05.767Z,3.28
2023-07-27T19:01:12.290Z,3.25
2023-07-27T19:03:17.759Z,3.30
2023-07-27T19:05:26.459Z,3.28
2023-07-27T19:07:38.628Z,3.42
2023-07-27T19:09:44.695Z,3.90
2023-07-27T19:11:50.260Z,3.20
2023-07-27T19:13:55.746Z,3.47
2023-07-27T19:15:59.264Z,3.28
2023-07-27T19:18:12.029Z,3.42
2023-07-27T19:20:21.869Z,2.67
2023-07-27T19:22:30.083Z,2.97
2023-07-27T19:24:38.130Z,2.55
2023-07-27T19:26:44.284Z,2.20
2023-07-27T19:29:09.492Z,2.13
2023-07-27T19:31:23.735Z,2.38
2023-07-27T19:33:30.101Z,2.80
2023-07-27T19:35:35.559Z,2.88
2023-07-27T19:37:48.363Z,2.30
2023-07-27T19:39:53.945Z,2.30
2023-07-27T19:41:59.815Z,2.80
2023-07-27T19:44:05.320Z,2.65
2023-07-27T19:46:10.979Z,2.90
2023-07-27T19:48:24.050Z,2.90
2023-07-27T19:50:30.313Z,3.10
2023-07-27T19:52:36.246Z,5.32
2023-07-27T19:54:44.228Z,3.45
2023-07-27T19:56:50.207Z,3.97
2023-07-27T19:58:55.579Z,4.32
2023-07-27T20:01:03.758Z,3.78
2023-07-27T20:03:09.261Z,3.47
2023-07-27T20:05:14.898Z,3.72
2023-07-27T20:07:27.109Z,3.92
2023-07-27T20:09:33.735Z,4.57
2023-07-27T20:11:42.147Z,2.88
2023-07-27T20:13:48.920Z,2.92
2023-07-27T20:15:54.635Z,2.70
2023-07-27T20:18:00.122Z,2.35
2023-07-27T20:20:05.624Z,2.13
2023-07-27T20:22:17.668Z,2.13
2023-07-27T20:24:23.093Z,2.60
2023-07-27T20:26:28.519Z,2.22
2023-07-27T20:28:40.191Z,2.13
2023-07-27T20:30:45.577Z,2.30
2023-07-27T20:32:52.670Z,2.50
2023-07-27T20:34:56.603Z,2.53
2023-07-27T20:37:02.295Z,1.83
2023-07-27T20:39:11.570Z,1.90
2023-07-27T20:41:16.940Z,2.55
2023-07-27T20:43:23.069Z,3.00
2023-07-27T20:45:31.141Z,3.15
2023-07-27T20:47:37.358Z,3.28
2023-07-27T20:49:42.794Z,3.13
2023-07-27T20:51:48.407Z,3.60
2023-07-27T20:53:53.956Z,3.13
2023-07-27T20:55:59.932Z,3.08
2023-07-27T20:58:08.631Z,3.72
2023-07-27T21:00:14.968Z,3.30
2023-07-27T21:02:23.140Z,3.38
2023-07-27T21:04:29.013Z,3.58
2023-07-27T21:06:36.094Z,3.20
2023-07-27T21:08:43.887Z,3.25
2023-07-27T21:10:53.292Z,3.47
2023-07-27T21:12:59.345Z,3.42
2023-07-27T21:15:04.943Z,3.40
2023-07-27T21:17:10.428Z,3.45
2023-07-27T21:19:18.679Z,3.53
2023-07-27T21:21:25.425Z,3.42
2023-07-27T21:23:43.351Z,3.37
2023-07-27T21:25:49.141Z,3.13
2023-07-27T21:27:57.589Z,3.38
2023-07-27T21:30:03.769Z,3.47
2023-07-27T21:32:10.415Z,4.03
2023-07-27T21:34:18.691Z,3.78
2023-07-27T21:36:24.135Z,4.05
2023-07-27T21:38:33.500Z,3.58
2023-07-27T21:40:39.352Z,3.53
2023-07-27T21:42:44.702Z,3.28
2023-07-27T21:44:47.853Z,2.90
2023-07-27T21:46:56.246Z,3.55
2023-07-27T21:49:05.929Z,3.10
2023-07-27T21:51:13.962Z,2.85
2023-07-27T21:53:19.957Z,3.05
2023-07-27T21:55:25.959Z,2.10
2023-07-27T21:57:37.661Z,2.35
2023-07-27T21:59:43.221Z,2.65
2023-07-27T22:01:48.765Z,2.30
2023-07-27T22:03:54.923Z,2.67
2023-07-27T22:06:00.759Z,2.80
2023-07-27T22:08:08.990Z,2.78
2023-07-27T22:10:17.695Z,3.90
2023-07-27T22:12:23.036Z,3.22
2023-07-27T22:14:28.964Z,2.80
2023-07-27T22:16:34.583Z,3.10
2023-07-27T22:18:45.205Z,3.50
2023-07-27T22:20:48.228Z,2.85
2023-07-27T22:22:53.630Z,3.30
2023-07-27T22:24:59.601Z,3.67
2023-07-27T22:27:04.996Z,3.38
2023-07-27T22:29:11.979Z,3.25
2023-07-27T22:31:18.081Z,3.37
2023-07-27T22:33:23.484Z,3.90
2023-07-27T22:35:33.420Z,3.03
2023-07-27T22:37:45.450Z,3.30
2023-07-27T22:39:51.153Z,2.95
2023-07-27T22:41:59.402Z,3.13
2023-07-27T22:44:05.301Z,2.33
2023-07-27T22:46:11.655Z,2.75
2023-07-27T22:48:20.203Z,3.00
2023-07-27T22:50:25.544Z,2.53
2023-07-27T22:52:31.033Z,2.53
2023-07-27T22:54:36.469Z,2.50
2023-07-27T22:56:42.162Z,2.33
2023-07-27T22:58:52.208Z,2.70
2023-07-27T23:00:57.835Z,2.88
2023-07-27T23:03:03.235Z,2.30
2023-07-27T23:05:11.217Z,2.70
2023-07-27T23:07:19.167Z,2.40
2023-07-27T23:09:24.522Z,2.60
2023-07-27T23:11:31.794Z,2.60
2023-07-27T23:13:37.348Z,2.60
2023-07-27T23:15:45.634Z,2.72
2023-07-27T23:17:51.522Z,2.50
2023-07-27T23:19:59.612Z,3.05
2023-07-27T23:22:05.938Z,2.20
2023-07-27T23:24:11.493Z,2.47
2023-07-27T23:26:14.467Z,2.83
2023-07-27T23:28:22.141Z,2.90
2023-07-27T23:30:27.644Z,2.50
2023-07-27T23:32:35.911Z,3.20
2023-07-27T23:34:41.393Z,2.40
2023-07-27T23:36:47.569Z,2.78
2023-07-27T23:38:53.310Z,2.90
2023-07-27T23:41:05.828Z,2.50
2023-07-27T23:43:11.210Z,2.05
2023-07-27T23:45:16.609Z,2.40
2023-07-27T23:47:26.565Z,2.03
2023-07-27T23:49:41.754Z,1.83
2023-07-27T23:51:47.319Z,1.48
2023-07-27T23:53:53.149Z,1.80
2023-07-27T23:56:00.569Z,1.60
